Time;durP1;ratioP1;P1;durP2;ratioP2;P2;SDS_P1;SDS_P2;PMS_P1;PMS_P2;Temp;Humidity;BMP_temperature;BMP_pressure;BME280_temperature;BME280_humidity;BME280_pressure;Samples;Min_cycle;Max_cycle;Signal;HPM_P1;HPM_P2
2022/04/18 00:01:48;;;;;;;13.70;9.57;;;15.40;43.10;;;;;;5074057;28;20460;-74
2022/04/18 00:04:14;;;;;;;16.63;10.13;;;15.40;43.10;;;;;;5073818;28;20059;-74
2022/04/18 00:06:40;;;;;;;16.58;10.57;;;15.40;43.00;;;;;;5074020;28;20467;-74
2022/04/18 00:09:06;;;;;;;17.38;9.05;;;15.40;43.10;;;;;;5073567;28;20032;-74
2022/04/18 00:11:32;;;;;;;14.85;9.02;;;15.40;43.20;;;;;;5073665;28;20040;-74
2022/04/18 00:13:58;;;;;;;14.10;9.18;;;15.40;43.30;;;;;;5073413;28;20033;-74
2022/04/18 00:16:24;;;;;;;16.65;9.90;;;15.30;43.40;;;;;;5073537;28;20025;-74
2022/04/18 00:18:51;;;;;;;16.10;10.60;;;15.30;43.30;;;;;;5073582;28;20071;-74
2022/04/18 00:21:16;;;;;;;13.80;9.38;;;15.20;43.30;;;;;;5073356;28;20032;-74
2022/04/18 00:23:43;;;;;;;15.85;10.73;;;15.10;44.00;;;;;;5073460;28;20027;-74
2022/04/18 00:26:09;;;;;;;15.48;9.95;;;15.00;43.90;;;;;;5073442;28;20021;-74
2022/04/18 00:28:34;;;;;;;16.20;10.10;;;14.90;44.40;;;;;;5073576;28;20379;-74
2022/04/18 00:31:00;;;;;;;13.80;9.77;;;14.80;44.30;;;;;;5073397;28;20483;-74
2022/04/18 00:33:26;;;;;;;15.23;10.10;;;14.80;44.40;;;;;;5073373;28;20043;-74
2022/04/18 00:35:55;;;;;;;18.20;10.80;;;14.80;44.50;;;;;;5073307;28;20036;-74
2022/04/18 00:38:21;;;;;;;15.15;10.25;;;14.90;45.10;;;;;;5073134;28;20118;-74
2022/04/18 00:40:47;;;;;;;16.10;10.55;;;14.80;45.00;;;;;;5073500;28;20028;-74
2022/04/18 00:43:13;;;;;;;15.88;10.00;;;14.80;44.60;;;;;;5072783;28;20027;-74
2022/04/18 00:45:38;;;;;;;16.77;10.20;;;14.80;44.90;;;;;;5072944;28;20074;-74
2022/04/18 00:48:04;;;;;;;14.32;9.07;;;14.80;45.00;;;;;;5072972;28;20021;-74
2022/04/18 00:50:33;;;;;;;16.13;10.02;;;14.80;45.00;;;;;;5073375;28;20036;-74
2022/04/18 00:52:59;;;;;;;14.57;10.80;;;14.80;45.00;;;;;;5073341;28;20063;-74
2022/04/18 00:55:26;;;;;;;16.90;10.00;;;14.80;44.90;;;;;;5073028;28;20389;-74
2022/04/18 00:57:54;;;;;;;17.90;10.23;;;14.80;45.30;;;;;;5073405;28;20078;-74
2022/04/18 01:00:20;;;;;;;15.18;9.60;;;14.70;45.20;;;;;;5072861;28;20025;-74
2022/04/18 01:02:46;;;;;;;14.60;10.30;;;14.80;45.20;;;;;;5072945;28;20067;-74
2022/04/18 01:05:12;;;;;;;16.25;9.80;;;14.70;45.20;;;;;;5073261;28;20032;-74
2022/04/18 01:07:39;;;;;;;17.30;10.90;;;14.70;45.50;;;;;;5073290;28;20024;-74
2022/04/18 01:10:06;;;;;;;14.43;9.07;;;14.80;45.70;;;;;;5072752;28;20060;-74
2022/04/18 01:12:32;;;;;;;11.98;9.18;;;14.80;45.90;;;;;;5073151;28;20023;-74
2022/04/18 01:14:58;;;;;;;15.13;8.93;;;14.90;45.80;;;;;;5072863;28;20123;-74
2022/04/18 01:17:24;;;;;;;15.73;9.60;;;14.90;45.80;;;;;;5072793;28;20082;-74
2022/04/18 01:19:50;;;;;;;15.43;10.27;;;15.00;45.40;;;;;;5072693;28;20032;-74
2022/04/18 01:22:18;;;;;;;19.13;10.13;;;14.90;45.20;;;;;;5072760;28;20032;-74
2022/04/18 01:30:12;;;;;;;15.27;8.90;;;14.80;45.90;;;;;;5072890;28;20066;-74
2022/04/18 01:32:38;;;;;;;15.52;9.63;;;14.90;46.00;;;;;;5072925;28;20020;-74
2022/04/18 01:35:04;;;;;;;14.10;9.35;;;14.90;45.70;;;;;;5072651;28;20105;-74
2022/04/18 01:37:30;;;;;;;13.02;8.35;;;14.90;45.80;;;;;;5072424;28;20029;-74
2022/04/18 01:39:56;;;;;;;13.63;9.63;;;14.90;45.80;;;;;;5072763;28;20032;-74
2022/04/18 01:42:22;;;;;;;15.50;9.63;;;14.90;46.10;;;;;;5072513;28;20563;-74
2022/04/18 01:44:48;;;;;;;16.35;10.30;;;14.90;45.80;;;;;;5072943;28;20072;-74
2022/04/18 01:47:14;;;;;;;16.35;9.57;;;14.90;45.90;;;;;;5072642;28;20025;-74
2022/04/18 01:49:40;;;;;;;12.70;9.45;;;14.80;45.90;;;;;;5072533;28;20357;-74
2022/04/18 01:52:05;;;;;;;13.48;9.00;;;14.80;45.60;;;;;;5072550;28;20036;-74
2022/04/18 01:54:31;;;;;;;16.50;8.98;;;14.70;45.60;;;;;;5072870;28;20068;-74
2022/04/18 01:56:57;;;;;;;11.45;7.72;;;14.60;45.80;;;;;;5076434;28;20016;-74
2022/04/18 01:59:23;;;;;;;12.90;8.18;;;14.60;46.10;;;;;;5076202;28;20478;-74
2022/04/18 02:01:49;;;;;;;14.23;8.93;;;14.60;46.10;;;;;;5076114;28;20087;-74
2022/04/18 02:04:15;;;;;;;15.00;8.32;;;14.70;45.70;;;;;;5075997;28;20036;-74
2022/04/18 02:06:41;;;;;;;14.15;8.85;;;14.60;45.50;;;;;;5076155;28;20037;-74
2022/04/18 02:09:06;;;;;;;17.02;9.60;;;14.60;45.70;;;;;;5075788;28;20054;-74
2022/04/18 02:11:32;;;;;;;13.63;9.13;;;14.50;45.30;;;;;;5075857;28;20115;-74
2022/04/18 02:13:58;;;;;;;13.80;8.35;;;14.40;45.70;;;;;;5075745;28;20032;-74
2022/04/18 02:16:24;;;;;;;13.25;7.97;;;14.30;45.80;;;;;;5076120;28;20040;-74
2022/04/18 02:18:49;;;;;;;11.93;8.02;;;14.30;46.20;;;;;;5076056;28;20048;-74
2022/04/18 02:21:16;;;;;;;11.80;8.63;;;14.30;46.20;;;;;;5075767;28;20290;-74
2022/04/18 02:23:42;;;;;;;17.85;8.93;;;14.30;46.20;;;;;;5075763;28;20028;-74
2022/04/18 02:26:09;;;;;;;13.02;8.05;;;14.30;45.80;;;;;;5075439;28;20024;-74
2022/04/18 02:28:35;;;;;;;11.95;8.05;;;14.30;45.90;;;;;;5075585;28;20379;-74
2022/04/18 02:31:02;;;;;;;13.43;8.20;;;14.20;45.90;;;;;;5075911;28;20032;-74
2022/04/18 02:33:28;;;;;;;15.98;9.07;;;14.20;46.00;;;;;;5075778;28;20040;-74
2022/04/18 02:35:54;;;;;;;12.45;8.27;;;14.10;45.90;;;;;;5075602;28;20047;-74
2022/04/18 02:38:19;;;;;;;14.00;8.57;;;14.20;46.10;;;;;;5075286;28;20021;-74
2022/04/18 02:40:45;;;;;;;13.48;8.02;;;14.20;46.00;;;;;;5075444;28;20032;-74
2022/04/18 02:43:12;;;;;;;12.85;8.30;;;14.20;46.20;;;;;;5075530;28;20028;-74
2022/04/18 02:45:37;;;;;;;12.45;8.98;;;14.20;46.20;;;;;;5075362;28;20024;-74
2022/04/18 02:48:04;;;;;;;14.57;8.15;;;14.30;45.90;;;;;;5075319;28;20035;-74
2022/04/18 02:50:30;;;;;;;12.30;7.47;;;14.30;45.90;;;;;;5075238;28;20447;-74
2022/04/18 02:52:56;;;;;;;13.38;7.88;;;14.30;46.10;;;;;;5075224;28;20025;-74
2022/04/18 02:55:22;;;;;;;13.80;9.10;;;14.40;46.30;;;;;;5075144;28;20061;-74
2022/04/18 02:57:48;;;;;;;13.82;8.23;;;14.30;46.00;;;;;;5074894;28;20032;-74
2022/04/18 03:00:14;;;;;;;11.52;8.10;;;14.40;46.50;;;;;;5074931;28;20020;-74
2022/04/18 03:02:40;;;;;;;12.45;6.40;;;14.40;46.80;;;;;;5075198;28;20023;-74
2022/04/18 03:05:07;;;;;;;11.82;7.47;;;14.50;47.50;;;;;;5074994;28;20025;-74
2022/04/18 03:07:33;;;;;;;14.57;8.90;;;14.60;47.70;;;;;;5073755;28;20098;-74
2022/04/18 03:09:59;;;;;;;13.77;8.70;;;14.60;46.90;;;;;;5074613;28;20044;-74
2022/04/18 03:12:25;;;;;;;9.50;7.05;;;14.70;47.10;;;;;;5075126;28;20031;-75
2022/04/18 03:14:50;;;;;;;10.15;7.07;;;14.70;47.20;;;;;;5074732;28;20170;-74
2022/04/18 03:17:17;;;;;;;14.18;7.88;;;14.70;47.80;;;;;;5074830;28;20060;-74
2022/04/18 03:19:42;;;;;;;11.57;7.38;;;14.80;47.30;;;;;;5074840;28;20036;-74
2022/04/18 03:22:08;;;;;;;8.88;6.15;;;14.80;47.60;;;;;;5074549;28;20020;-74
2022/04/18 03:24:34;;;;;;;11.63;7.28;;;14.80;47.80;;;;;;5074462;28;20027;-74
2022/04/18 03:27:04;;;;;;;10.77;7.15;;;14.90;48.00;;;;;;5074490;28;20107;-74
2022/04/18 03:29:31;;;;;;;10.95;6.82;;;14.90;47.60;;;;;;5074828;28;20075;-74
2022/04/18 03:31:57;;;;;;;14.13;8.13;;;14.90;48.00;;;;;;5074436;28;20032;-74
2022/04/18 03:34:23;;;;;;;11.75;6.88;;;15.00;48.30;;;;;;5074769;28;20450;-74
2022/04/18 03:39:53;;;;;;;13.55;8.82;;;15.10;46.90;;;;;;5074409;28;20099;-74
2022/04/18 03:42:32;;;;;;;11.98;8.13;;;15.00;46.50;;;;;;5073966;28;20020;-74
2022/04/18 03:45:04;;;;;;;14.23;9.48;;;14.90;46.40;;;;;;5074511;28;20043;-74
2022/04/18 03:47:30;;;;;;;13.68;9.27;;;14.90;46.00;;;;;;5073953;28;20025;-74
2022/04/18 03:49:56;;;;;;;12.00;8.10;;;14.80;46.00;;;;;;5074034;28;20020;-74
2022/04/18 03:52:23;;;;;;;14.38;8.18;;;14.70;46.20;;;;;;5073997;28;20032;-74
2022/04/18 03:54:48;;;;;;;11.93;8.07;;;14.60;46.60;;;;;;5073855;28;20154;-74
2022/04/18 03:57:14;;;;;;;12.68;8.68;;;14.60;47.10;;;;;;5074003;28;20052;-74
2022/04/18 03:59:40;;;;;;;14.13;8.75;;;14.50;46.30;;;;;;5074213;28;20028;-74
2022/04/18 04:02:06;;;;;;;13.95;8.38;;;14.50;46.40;;;;;;5073715;28;20032;-74
2022/04/18 04:04:32;;;;;;;12.48;8.35;;;14.40;46.50;;;;;;5073813;28;20383;-74
2022/04/18 04:06:58;;;;;;;14.10;8.93;;;14.40;46.80;;;;;;5073742;28;20021;-74
2022/04/18 04:09:24;;;;;;;13.25;8.52;;;14.40;46.70;;;;;;5073767;28;20396;-74
2022/04/18 04:11:51;;;;;;;11.15;7.75;;;14.30;46.70;;;;;;5073980;28;20029;-74
2022/04/18 04:14:17;;;;;;;13.05;9.07;;;14.20;46.50;;;;;;5073345;28;20078;-74
2022/04/18 04:16:42;;;;;;;11.90;8.40;;;14.20;46.30;;;;;;5073539;28;20017;-74
2022/04/18 04:19:08;;;;;;;14.30;9.38;;;14.00;47.30;;;;;;5073455;28;20479;-74
2022/04/18 04:21:35;;;;;;;13.55;8.80;;;14.00;46.90;;;;;;5073394;28;20158;-74
2022/04/18 04:24:01;;;;;;;14.60;8.63;;;13.90;47.50;;;;;;5073595;28;20028;-74
2022/04/18 04:26:26;;;;;;;14.65;8.88;;;13.80;47.70;;;;;;5073193;28;20066;-74
2022/04/18 04:28:52;;;;;;;12.45;8.95;;;13.80;47.60;;;;;;5073760;28;20033;-74
2022/04/18 04:31:18;;;;;;;15.82;9.43;;;13.80;47.30;;;;;;5073682;28;20162;-74
2022/04/18 04:33:43;;;;;;;16.88;9.05;;;13.80;47.50;;;;;;5073439;28;20033;-74
2022/04/18 04:36:09;;;;;;;15.93;9.05;;;13.80;47.70;;;;;;5073074;28;20020;-74
2022/04/18 04:38:34;;;;;;;12.65;8.00;;;13.80;48.00;;;;;;5073539;28;20026;-74
2022/04/18 04:41:02;;;;;;;13.85;8.95;;;13.80;48.10;;;;;;5073553;28;20376;-74
2022/04/18 04:43:28;;;;;;;14.35;8.70;;;13.80;48.10;;;;;;5073314;28;20035;-74
2022/04/18 04:45:57;;;;;;;15.20;9.00;;;13.80;47.60;;;;;;5073403;28;20025;-74
2022/04/18 04:48:23;;;;;;;14.32;8.60;;;13.80;47.80;;;;;;5072924;28;20467;-74
2022/04/18 04:50:49;;;;;;;11.60;8.32;;;13.70;47.30;;;;;;5073538;28;20029;-74
2022/04/18 04:53:15;;;;;;;12.80;7.88;;;13.60;47.20;;;;;;5073211;28;20040;-74
2022/04/18 04:55:41;;;;;;;11.98;7.90;;;13.50;47.50;;;;;;5073227;28;20029;-74
2022/04/18 04:58:09;;;;;;;14.10;8.60;;;13.50;48.10;;;;;;5073218;28;20020;-74
2022/04/18 05:00:35;;;;;;;13.93;9.35;;;13.60;48.20;;;;;;5073220;28;20149;-74
2022/04/18 05:03:01;;;;;;;16.73;9.40;;;13.60;47.80;;;;;;5073043;28;20021;-74
2022/04/18 05:05:26;;;;;;;15.60;8.80;;;13.50;47.70;;;;;;5073241;28;20033;-74
2022/04/18 05:07:52;;;;;;;13.40;8.57;;;13.50;48.00;;;;;;5073209;28;20043;-74
2022/04/18 05:10:18;;;;;;;16.08;8.70;;;13.50;47.60;;;;;;5072665;28;20044;-74
2022/04/18 05:12:43;;;;;;;15.30;9.10;;;13.40;48.00;;;;;;5072981;28;20024;-74
2022/04/18 05:15:09;;;;;;;12.80;8.40;;;13.40;47.90;;;;;;5072795;28;20068;-74
2022/04/18 05:17:35;;;;;;;13.43;8.23;;;13.40;48.00;;;;;;5073261;28;20021;-74
2022/04/18 05:20:03;;;;;;;12.80;8.82;;;13.40;48.00;;;;;;5073177;28;20372;-74
2022/04/18 05:22:28;;;;;;;12.73;7.95;;;13.40;48.10;;;;;;5072626;28;20417;-74
2022/04/18 05:24:55;;;;;;;12.80;7.88;;;13.40;48.20;;;;;;5073099;28;20103;-74
2022/04/18 05:27:21;;;;;;;13.48;7.78;;;13.40;48.20;;;;;;5072827;28;20096;-74
2022/04/18 05:29:47;;;;;;;12.95;8.23;;;13.50;48.70;;;;;;5073320;28;20030;-74
2022/04/18 05:32:12;;;;;;;11.55;7.65;;;13.50;48.40;;;;;;5076935;28;20028;-74
2022/04/18 05:34:38;;;;;;;13.48;8.25;;;13.60;48.40;;;;;;5076734;28;20058;-74
2022/04/18 05:37:04;;;;;;;14.48;8.40;;;13.60;48.30;;;;;;5076665;28;20475;-74
2022/04/18 05:39:30;;;;;;;12.65;8.65;;;13.60;48.20;;;;;;5076578;28;20051;-74
2022/04/18 05:41:59;;;;;;;10.52;7.65;;;13.60;48.50;;;;;;5076703;28;20024;-74
2022/04/18 05:44:24;;;;;;;12.25;7.97;;;13.60;48.40;;;;;;5076826;28;20025;-74
2022/04/18 05:46:50;;;;;;;10.60;7.63;;;13.70;48.40;;;;;;5076602;28;20486;-74
2022/04/18 05:49:16;;;;;;;10.50;7.00;;;13.70;48.50;;;;;;5076440;28;20502;-74
2022/04/18 05:51:42;;;;;;;12.88;7.95;;;13.80;48.50;;;;;;5076676;28;20043;-74
2022/04/18 05:54:08;;;;;;;11.88;7.82;;;13.90;48.50;;;;;;5076520;28;20033;-74
2022/04/18 05:56:34;;;;;;;11.48;7.10;;;14.00;48.70;;;;;;5075674;28;20436;-74
2022/04/18 05:59:00;;;;;;;10.38;6.55;;;14.10;47.90;;;;;;5076208;28;20028;-74
2022/04/18 06:01:28;;;;;;;11.80;7.15;;;14.10;47.80;;;;;;5076135;28;20035;-74
2022/04/18 06:03:54;;;;;;;9.02;7.10;;;14.20;48.30;;;;;;5076309;28;20020;-74
2022/04/18 06:06:20;;;;;;;10.98;7.05;;;14.30;48.20;;;;;;5076096;28;20025;-74
2022/04/18 06:08:46;;;;;;;10.95;7.07;;;14.40;48.30;;;;;;5075941;28;20035;-74
2022/04/18 06:11:11;;;;;;;9.32;6.35;;;14.50;48.40;;;;;;5075539;28;20044;-74
2022/04/18 06:13:37;;;;;;;9.85;6.68;;;14.60;47.60;;;;;;5075872;28;20028;-74
2022/04/18 06:16:03;;;;;;;9.27;6.30;;;14.60;47.10;;;;;;5076198;28;20029;-74
2022/04/18 06:18:28;;;;;;;10.38;5.70;;;14.60;46.70;;;;;;5075852;28;20502;-74
2022/04/18 06:20:54;;;;;;;11.63;6.68;;;14.60;46.60;;;;;;5075837;28;20387;-74
2022/04/18 06:23:20;;;;;;;7.40;5.20;;;14.60;46.30;;;;;;5075849;28;20020;-74
2022/04/18 06:25:45;;;;;;;9.40;5.35;;;14.50;45.80;;;;;;5075696;28;20020;-74
2022/04/18 06:28:14;;;;;;;9.07;5.05;;;14.40;45.00;;;;;;5075926;28;20052;-74
2022/04/18 06:30:40;;;;;;;10.35;5.53;;;14.40;46.20;;;;;;5075821;28;20025;-74
2022/04/18 06:33:09;;;;;;;8.25;5.47;;;14.40;46.10;;;;;;5075173;28;20462;-74
2022/04/18 06:35:35;;;;;;;8.63;5.50;;;14.50;45.90;;;;;;5075727;28;20028;-74
2022/04/18 06:38:01;;;;;;;7.15;4.97;;;14.40;45.60;;;;;;5075805;28;20044;-74
2022/04/18 06:40:27;;;;;;;8.48;5.18;;;14.30;45.50;;;;;;5075075;28;20052;-74
2022/04/18 06:42:52;;;;;;;8.10;5.13;;;14.30;45.90;;;;;;5075603;28;20141;-74
2022/04/18 06:45:18;;;;;;;9.40;5.85;;;14.40;46.30;;;;;;5075096;28;20397;-74
2022/04/18 06:47:43;;;;;;;9.60;5.25;;;14.40;46.60;;;;;;5075374;28;20430;-74
2022/04/18 06:50:12;;;;;;;6.85;4.75;;;14.50;46.70;;;;;;5075573;28;20464;-74
2022/04/18 06:52:42;;;;;;;8.50;5.38;;;14.60;46.70;;;;;;5075177;28;20055;-74
2022/04/18 06:55:08;;;;;;;8.27;4.78;;;14.70;46.50;;;;;;5075075;28;20064;-74
2022/04/18 06:57:35;;;;;;;9.02;5.35;;;14.80;46.50;;;;;;5075314;28;20020;-74
2022/04/18 07:00:02;;;;;;;8.63;4.72;;;14.80;46.30;;;;;;5075028;28;20491;-74
2022/04/18 07:02:28;;;;;;;9.82;5.47;;;14.70;46.40;;;;;;5075349;28;20032;-74
2022/04/18 07:04:53;;;;;;;8.07;4.70;;;14.70;46.10;;;;;;5075077;28;20016;-74
2022/04/18 07:07:19;;;;;;;9.88;4.95;;;14.70;46.90;;;;;;5074761;28;20070;-74
2022/04/18 07:09:45;;;;;;;7.78;5.20;;;14.70;46.30;;;;;;5074426;28;20051;-74
2022/04/18 07:12:10;;;;;;;10.40;5.15;;;14.70;46.20;;;;;;5074809;28;20468;-74
2022/04/18 07:14:36;;;;;;;10.55;5.57;;;14.70;46.40;;;;;;5074768;28;20040;-74
2022/04/18 07:17:03;;;;;;;8.02;4.88;;;14.80;46.60;;;;;;5074600;28;20012;-74
2022/04/18 07:19:28;;;;;;;10.38;5.45;;;14.90;47.20;;;;;;5074304;28;20021;-74
2022/04/18 07:21:55;;;;;;;10.32;5.63;;;14.90;46.70;;;;;;5074718;28;20028;-74
2022/04/18 07:24:22;;;;;;;8.50;5.32;;;14.90;46.80;;;;;;5074860;28;20028;-74
2022/04/18 07:26:48;;;;;;;9.20;5.28;;;14.90;47.20;;;;;;5074804;28;20077;-74
2022/04/18 07:29:14;;;;;;;11.07;4.97;;;14.90;47.20;;;;;;5074607;28;20025;-75
2022/04/18 07:31:39;;;;;;;8.77;5.03;;;15.00;47.40;;;;;;5074392;28;20024;-74
2022/04/18 07:34:05;;;;;;;8.60;4.50;;;15.00;48.10;;;;;;5074340;28;20037;-74
2022/04/18 07:36:30;;;;;;;8.40;5.35;;;15.00;48.70;;;;;;5074195;28;20107;-74
2022/04/18 07:38:56;;;;;;;7.97;5.13;;;15.20;49.00;;;;;;5074554;28;20037;-74
2022/04/18 07:41:24;;;;;;;8.93;4.32;;;15.20;48.60;;;;;;5074449;28;20527;-74
2022/04/18 07:43:51;;;;;;;8.30;4.28;;;15.20;48.00;;;;;;5074555;28;20425;-74
2022/04/18 07:46:18;;;;;;;7.93;4.47;;;15.30;49.20;;;;;;5073977;28;20108;-74
2022/04/18 07:48:45;;;;;;;8.05;4.90;;;15.50;48.80;;;;;;5074144;28;20016;-74
2022/04/18 07:53:56;;;;;;;5.80;3.70;;;15.60;48.30;;;;;;5073801;28;20058;-74
2022/04/18 07:56:22;;;;;;;5.90;3.95;;;15.70;47.40;;;;;;5073765;28;20020;-74
2022/04/18 07:58:49;;;;;;;6.20;3.88;;;15.70;47.90;;;;;;5074198;28;20365;-74
2022/04/18 08:01:14;;;;;;;6.03;3.08;;;15.80;47.20;;;;;;5073831;28;20524;-74
2022/04/18 08:03:40;;;;;;;7.63;3.30;;;16.00;47.30;;;;;;5073841;28;20112;-74
2022/04/18 08:06:06;;;;;;;5.85;3.00;;;16.10;47.10;;;;;;5073755;28;20021;-74
2022/04/18 08:08:32;;;;;;;4.57;3.33;;;16.10;46.60;;;;;;5074091;28;20017;-74
2022/04/18 08:10:58;;;;;;;6.22;2.85;;;16.20;46.30;;;;;;5073475;28;20083;-74
2022/04/18 08:13:24;;;;;;;5.78;3.47;;;16.40;45.80;;;;;;5073365;28;20039;-74
2022/04/18 08:15:50;;;;;;;5.88;3.22;;;16.50;46.70;;;;;;5073388;28;20028;-75
2022/04/18 08:18:16;;;;;;;4.35;2.97;;;16.50;46.10;;;;;;5073332;28;20127;-74
2022/04/18 08:20:41;;;;;;;6.72;3.20;;;16.60;46.80;;;;;;5073748;28;20543;-74
2022/04/18 08:23:07;;;;;;;7.00;3.13;;;16.80;46.90;;;;;;5073487;28;20413;-74
2022/04/18 08:25:32;;;;;;;5.80;2.95;;;16.90;46.10;;;;;;5073594;28;20013;-74
2022/04/18 08:27:58;;;;;;;6.30;3.13;;;17.00;46.20;;;;;;5073205;28;20361;-74
2022/04/18 08:30:24;;;;;;;4.15;2.85;;;17.10;47.20;;;;;;5073383;28;20020;-75
2022/04/18 08:32:50;;;;;;;6.45;2.75;;;17.00;46.70;;;;;;5073647;28;20544;-74
2022/04/18 08:35:16;;;;;;;5.20;3.13;;;17.10;45.80;;;;;;5073536;28;20059;-75
2022/04/18 08:37:41;;;;;;;5.97;3.05;;;17.20;45.70;;;;;;5073460;28;20491;-74
2022/04/18 08:40:10;;;;;;;4.95;3.28;;;17.20;46.60;;;;;;5073161;28;20024;-74
2022/04/18 08:42:38;;;;;;;3.30;2.50;;;17.40;46.60;;;;;;5073113;28;20142;-74
2022/04/18 08:45:06;;;;;;;6.78;3.08;;;17.50;47.40;;;;;;5073126;28;20028;-75
2022/04/18 08:53:02;;;;;;;6.03;2.80;;;17.90;46.60;;;;;;5072889;28;20400;-75
2022/04/18 08:55:29;;;;;;;5.63;2.55;;;18.00;46.20;;;;;;5072833;28;20035;-74
2022/04/18 08:57:55;;;;;;;4.15;2.42;;;18.10;45.10;;;;;;5072964;28;20104;-75
2022/04/18 09:00:20;;;;;;;4.35;2.53;;;18.30;45.30;;;;;;5073257;28;20109;-75
2022/04/18 09:02:46;;;;;;;4.88;2.17;;;18.40;45.40;;;;;;5073146;28;20108;-75
2022/04/18 09:05:13;;;;;;;4.00;2.70;;;18.50;43.90;;;;;;5074051;28;20048;-75
2022/04/18 09:07:43;;;;;;;3.60;2.00;;;18.50;44.90;;;;;;5076918;28;20064;-74
2022/04/18 09:10:11;;;;;;;5.32;2.35;;;18.60;44.10;;;;;;5076906;28;20051;-74
2022/04/18 09:12:42;;;;;;;2.67;2.00;;;18.70;43.70;;;;;;5076889;28;20434;-74
2022/04/18 09:15:09;;;;;;;4.85;2.08;;;18.80;43.20;;;;;;5076961;28;20541;-75
2022/04/18 09:17:36;;;;;;;3.35;1.95;;;18.80;43.10;;;;;;5076917;28;20066;-75
2022/04/18 09:20:14;;;;;;;4.53;1.65;;;18.80;43.00;;;;;;5077117;28;20031;-75
2022/04/18 09:22:47;;;;;;;3.22;2.08;;;18.90;44.80;;;;;;5077213;28;20107;-75
2022/04/18 09:25:19;;;;;;;3.22;2.03;;;19.10;44.00;;;;;;5077131;28;20032;-75
2022/04/18 09:27:54;;;;;;;3.90;1.52;;;19.10;45.60;;;;;;5076571;28;20522;-75
2022/04/18 09:30:20;;;;;;;3.30;1.90;;;19.30;45.50;;;;;;5076780;28;20029;-75
2022/04/18 09:33:15;;;;;;;3.20;1.70;;;19.40;43.30;;;;;;5076973;28;20116;-75
2022/04/18 09:35:41;;;;;;;2.47;1.85;;;19.50;41.60;;;;;;5067856;28;20044;-75
2022/04/18 09:38:08;;;;;;;2.75;1.75;;;19.70;42.80;;;;;;5076589;28;20383;-75
2022/04/18 09:40:36;;;;;;;3.65;1.75;;;19.80;42.00;;;;;;5076517;28;20426;-75
2022/04/18 09:43:02;;;;;;;3.35;1.85;;;20.00;41.60;;;;;;5076579;28;20020;-75
2022/04/18 09:45:28;;;;;;;4.15;1.63;;;20.10;42.20;;;;;;5076781;28;20025;-75
2022/04/18 09:47:58;;;;;;;2.53;1.75;;;20.20;42.10;;;;;;5076389;28;20027;-75
2022/04/18 09:53:19;;;;;;;2.63;1.60;;;20.40;40.00;;;;;;5076012;28;20031;-75
2022/04/18 09:55:53;;;;;;;1.95;1.30;;;20.40;41.30;;;;;;5076583;28;20074;-75
2022/04/18 09:58:20;;;;;;;2.50;1.60;;;20.50;40.50;;;;;;5076192;28;20021;-75
2022/04/18 10:00:46;;;;;;;2.33;1.65;;;20.50;40.40;;;;;;5076034;28;20027;-75
2022/04/18 10:03:12;;;;;;;2.72;1.95;;;20.60;38.90;;;;;;5076383;28;20028;-75
2022/04/18 10:05:39;;;;;;;4.80;2.00;;;20.60;39.90;;;;;;5076348;28;20028;-75
2022/04/18 10:08:05;;;;;;;3.00;1.35;;;20.70;39.90;;;;;;5075820;28;20024;-75
2022/04/18 10:10:36;;;;;;;3.80;1.70;;;20.90;41.50;;;;;;5075797;28;20089;-75
2022/04/18 10:13:06;;;;;;;4.45;1.70;;;21.00;40.60;;;;;;5075837;28;20468;-74
2022/04/18 10:15:33;;;;;;;2.50;1.70;;;21.10;38.70;;;;;;5075675;28;20051;-75
2022/04/18 10:18:05;;;;;;;3.88;1.98;;;21.10;38.40;;;;;;5075700;28;20418;-75
2022/04/18 10:20:52;;;;;;;1.50;1.23;;;21.20;39.40;;;;;;5075815;28;20025;-75
2022/04/18 10:23:36;;;;;;;3.72;1.67;;;21.40;40.00;;;;;;5075857;28;20029;-75
2022/04/18 10:26:20;;;;;;;2.65;1.45;;;21.40;37.70;;;;;;5075973;28;20391;-75
2022/04/18 10:28:48;;;;;;;2.95;1.30;;;21.40;37.80;;;;;;5076012;28;20032;-75
2022/04/18 10:31:19;;;;;;;3.13;1.30;;;21.40;39.10;;;;;;5075381;28;20029;-75
2022/04/18 10:33:45;;;;;;;4.72;1.80;;;21.50;38.40;;;;;;5075683;28;20028;-75
2022/04/18 10:36:12;;;;;;;5.40;2.00;;;21.60;38.60;;;;;;5075224;28;20036;-75
2022/04/18 10:38:40;;;;;;;2.55;1.65;;;21.70;38.80;;;;;;5075860;28;20078;-75
2022/04/18 10:41:35;;;;;;;2.90;1.50;;;21.70;38.20;;;;;;5075486;28;20039;-75
2022/04/18 10:44:08;;;;;;;2.50;1.50;;;21.80;37.30;;;;;;5075237;28;20161;-75
2022/04/18 10:46:36;;;;;;;3.63;1.58;;;21.80;37.20;;;;;;5075621;28;20032;-75
2022/04/18 10:49:17;;;;;;;2.22;1.60;;;21.70;37.90;;;;;;5075622;28;20032;-75
2022/04/18 10:51:47;;;;;;;3.80;1.38;;;21.70;37.80;;;;;;5075529;28;20017;-75
2022/04/18 10:54:20;;;;;;;4.63;1.98;;;21.80;37.60;;;;;;5074875;28;20020;-75
2022/04/18 10:56:48;;;;;;;2.35;1.38;;;21.80;37.40;;;;;;5075283;28;20033;-75
2022/04/18 10:59:15;;;;;;;2.13;1.45;;;21.90;37.00;;;;;;5075152;28;20025;-75
2022/04/18 11:01:42;;;;;;;2.85;1.30;;;22.00;37.00;;;;;;5074728;28;20067;-75
2022/04/18 11:04:09;;;;;;;3.50;1.00;;;22.00;35.40;;;;;;5075291;28;20379;-75
2022/04/18 11:06:38;;;;;;;2.55;1.10;;;22.00;35.00;;;;;;5075037;28;20094;-75
2022/04/18 11:09:08;;;;;;;1.52;1.10;;;22.00;35.70;;;;;;5074521;28;20498;-75
2022/04/18 11:11:47;;;;;;;2.13;1.00;;;22.20;35.60;;;;;;5074980;28;20036;-75
2022/04/18 11:14:20;;;;;;;2.65;1.10;;;22.40;34.10;;;;;;5075139;28;20033;-75
2022/04/18 11:16:45;;;;;;;2.65;1.20;;;22.40;34.60;;;;;;5074586;28;20017;-75
2022/04/18 11:19:13;;;;;;;2.22;1.25;;;22.40;34.20;;;;;;5074710;28;20357;-75
2022/04/18 11:21:58;;;;;;;2.30;1.08;;;22.40;34.90;;;;;;5074845;28;20474;-75
2022/04/18 11:24:43;;;;;;;2.05;1.33;;;22.40;33.10;;;;;;5074591;28;20467;-75
2022/04/18 11:27:12;;;;;;;3.40;1.60;;;22.40;33.30;;;;;;5073906;28;20024;-75
2022/04/18 11:29:39;;;;;;;2.60;1.20;;;22.40;33.90;;;;;;5074530;28;20024;-75
2022/04/18 11:32:06;;;;;;;1.60;1.00;;;22.30;33.80;;;;;;5074288;28;20483;-75
2022/04/18 11:34:34;;;;;;;2.47;0.90;;;22.40;33.00;;;;;;5074312;28;20540;-75
2022/04/18 11:37:02;;;;;;;2.75;1.20;;;22.40;32.80;;;;;;5074475;28;20031;-75
2022/04/18 11:39:45;;;;;;;2.17;1.30;;;22.60;34.10;;;;;;5074101;28;20067;-75
2022/04/18 11:42:15;;;;;;;1.75;1.27;;;22.70;34.50;;;;;;5074513;28;20379;-75
2022/04/18 11:44:42;;;;;;;2.22;1.60;;;22.90;35.00;;;;;;5073940;28;20063;-74
2022/04/18 11:47:09;;;;;;;1.58;1.38;;;23.00;33.80;;;;;;5074112;28;20523;-75
2022/04/18 11:49:36;;;;;;;4.28;1.70;;;23.00;34.00;;;;;;5074332;28;20154;-75
2022/04/18 11:52:02;;;;;;;2.63;1.92;;;23.10;35.00;;;;;;5074131;28;20028;-75
2022/04/18 11:54:28;;;;;;;4.07;2.03;;;23.00;34.40;;;;;;5073891;28;20036;-75
2022/04/18 11:56:59;;;;;;;3.15;1.83;;;23.00;34.80;;;;;;5074057;28;20036;-74
2022/04/18 11:59:32;;;;;;;2.13;1.65;;;23.00;35.40;;;;;;5074223;28;20021;-74
2022/04/18 12:07:32;;;;;;;3.28;2.10;;;23.10;35.70;;;;;;5052174;28;20043;-74
2022/04/18 12:09:57;;;;;;;2.58;1.60;;;23.10;34.50;;;;;;5073490;28;20052;-74
2022/04/18 12:12:28;;;;;;;2.67;1.95;;;23.10;34.30;;;;;;5073779;28;20029;-75
2022/04/18 12:14:54;;;;;;;1.80;1.55;;;23.10;34.40;;;;;;5073268;28;20040;-75
2022/04/18 12:17:20;;;;;;;3.28;1.70;;;23.20;34.20;;;;;;5072437;28;20040;-74
2022/04/18 12:19:45;;;;;;;3.03;1.88;;;23.30;34.80;;;;;;5073743;28;20028;-75
2022/04/18 12:22:23;;;;;;;3.95;1.92;;;23.40;34.30;;;;;;5073533;28;20460;-75
2022/04/18 12:24:50;;;;;;;2.58;2.05;;;23.30;34.60;;;;;;5073644;28;20024;-76
2022/04/18 12:27:16;;;;;;;3.00;1.90;;;23.30;33.60;;;;;;5073347;28;20059;-75
2022/04/18 12:29:43;;;;;;;2.65;1.63;;;23.20;34.40;;;;;;5073260;28;20031;-75
2022/04/18 12:32:28;;;;;;;3.17;2.00;;;23.40;34.20;;;;;;5073313;28;20474;-75
2022/04/18 12:34:53;;;;;;;3.17;1.70;;;23.60;34.30;;;;;;5073249;28;20036;-74
2022/04/18 12:37:25;;;;;;;1.55;1.38;;;23.80;33.50;;;;;;5073301;28;20118;-74
2022/04/18 12:40:16;;;;;;;2.13;1.57;;;23.80;33.30;;;;;;5072934;28;20161;-74
2022/04/18 12:42:50;;;;;;;2.63;1.83;;;23.90;33.40;;;;;;5073461;28;20021;-74
2022/04/18 12:45:16;;;;;;;2.88;1.73;;;23.70;33.20;;;;;;5073373;28;20024;-74
2022/04/18 12:47:42;;;;;;;2.53;1.90;;;23.50;33.80;;;;;;5073519;28;20028;-74
2022/04/18 12:50:08;;;;;;;2.10;1.30;;;23.70;34.00;;;;;;5073122;28;20399;-74
2022/04/18 12:52:34;;;;;;;4.57;1.50;;;23.80;32.90;;;;;;5073304;28;20032;-74
2022/04/18 12:55:06;;;;;;;3.10;1.60;;;23.90;32.30;;;;;;5072747;28;20494;-74
2022/04/18 12:57:33;;;;;;;3.25;1.65;;;24.00;32.40;;;;;;5072837;28;20111;-74
2022/04/18 13:00:14;;;;;;;3.33;1.55;;;24.20;33.30;;;;;;5072970;28;20028;-74
2022/04/18 13:02:40;;;;;;;1.77;1.30;;;24.30;33.60;;;;;;5073420;28;20371;-74
2022/04/18 13:05:06;;;;;;;2.10;1.27;;;24.20;32.50;;;;;;5073014;28;20033;-73
2022/04/18 13:07:40;;;;;;;2.67;1.65;;;24.20;32.10;;;;;;5073237;28;20031;-75